sensor_id;sensor_type;location;lat;lon;timestamp;P1;durP1;ratioP1;P2;durP2;ratioP2
60588;SDS011;46421;48.610;9.334;2023-04-01T00:00:23;1.00;;;0.20;;
60588;SDS011;46421;48.610;9.334;2023-04-01T00:02:49;1.75;;;0.20;;
60588;SDS011;46421;48.610;9.334;2023-04-01T00:05:14;0.80;;;0.30;;
60588;SDS011;46421;48.610;9.334;2023-04-01T00:07:41;1.25;;;0.50;;
60588;SDS011;46421;48.610;9.334;2023-04-01T00:10:07;0.77;;;0.32;;
60588;SDS011;46421;48.610;9.334;2023-04-01T00:12:34;0.95;;;0.20;;
60588;SDS011;46421;48.610;9.334;2023-04-01T00:15:00;1.08;;;0.38;;
60588;SDS011;46421;48.610;9.334;2023-04-01T00:17:26;1.63;;;0.45;;
60588;SDS011;46421;48.610;9.334;2023-04-01T00:19:52;0.88;;;0.28;;
60588;SDS011;46421;48.610;9.334;2023-04-01T00:22:19;0.75;;;0.28;;
60588;SDS011;46421;48.610;9.334;2023-04-01T00:24:45;0.20;;;0.20;;
60588;SDS011;46421;48.610;9.334;2023-04-01T00:27:10;3.10;;;0.30;;
60588;SDS011;46421;48.610;9.334;2023-04-01T00:29:37;1.43;;;0.33;;
60588;SDS011;46421;48.610;9.334;2023-04-01T00:32:02;3.40;;;0.30;;
60588;SDS011;46421;48.610;9.334;2023-04-01T00:34:27;1.83;;;0.20;;
60588;SDS011;46421;48.610;9.334;2023-04-01T00:36:53;0.57;;;0.15;;
60588;SDS011;46421;48.610;9.334;2023-04-01T00:39:19;1.55;;;0.13;;
60588;SDS011;46421;48.610;9.334;2023-04-01T00:41:45;0.55;;;0.20;;
60588;SDS011;46421;48.610;9.334;2023-04-01T00:44:16;0.73;;;0.20;;
60588;SDS011;46421;48.610;9.334;2023-04-01T00:46:44;2.33;;;0.20;;
60588;SDS011;46421;48.610;9.334;2023-04-01T00:49:10;0.00;;;0.00;;
60588;SDS011;46421;48.610;9.334;2023-04-01T00:51:36;1.65;;;0.30;;
60588;SDS011;46421;48.610;9.334;2023-04-01T00:56:35;0.32;;;0.10;;
60588;SDS011;46421;48.610;9.334;2023-04-01T00:59:06;0.20;;;0.03;;
60588;SDS011;46421;48.610;9.334;2023-04-01T01:01:36;1.00;;;0.20;;
60588;SDS011;46421;48.610;9.334;2023-04-01T01:04:01;0.55;;;0.20;;
60588;SDS011;46421;48.610;9.334;2023-04-01T01:06:34;1.45;;;0.38;;
60588;SDS011;46421;48.610;9.334;2023-04-01T01:11:58;1.70;;;0.32;;
60588;SDS011;46421;48.610;9.334;2023-04-01T01:14:35;0.00;;;0.00;;
60588;SDS011;46421;48.610;9.334;2023-04-01T01:17:22;1.10;;;0.25;;
60588;SDS011;46421;48.610;9.334;2023-04-01T01:25:48;0.60;;;0.15;;
60588;SDS011;46421;48.610;9.334;2023-04-01T01:28:49;0.50;;;0.17;;
60588;SDS011;46421;48.610;9.334;2023-04-01T01:34:50;0.00;;;0.00;;
60588;SDS011;46421;48.610;9.334;2023-04-01T01:37:36;1.92;;;0.40;;
60588;SDS011;46421;48.610;9.334;2023-04-01T01:40:05;0.80;;;0.22;;
60588;SDS011;46421;48.610;9.334;2023-04-01T01:42:34;0.15;;;0.15;;
60588;SDS011;46421;48.610;9.334;2023-04-01T01:45:02;0.32;;;0.10;;
60588;SDS011;46421;48.610;9.334;2023-04-01T01:47:30;0.20;;;0.10;;
60588;SDS011;46421;48.610;9.334;2023-04-01T01:49:57;0.55;;;0.20;;
60588;SDS011;46421;48.610;9.334;2023-04-01T01:52:24;1.85;;;0.28;;
60588;SDS011;46421;48.610;9.334;2023-04-01T01:54:54;0.00;;;0.00;;
60588;SDS011;46421;48.610;9.334;2023-04-01T01:57:32;0.10;;;0.10;;
60588;SDS011;46421;48.610;9.334;2023-04-01T02:00:04;0.80;;;0.17;;
60588;SDS011;46421;48.610;9.334;2023-04-01T02:02:39;0.38;;;0.10;;
60588;SDS011;46421;48.610;9.334;2023-04-01T02:05:07;0.20;;;0.10;;
60588;SDS011;46421;48.610;9.334;2023-04-01T02:07:37;0.55;;;0.17;;
60588;SDS011;46421;48.610;9.334;2023-04-01T02:10:05;0.57;;;0.20;;
60588;SDS011;46421;48.610;9.334;2023-04-01T02:12:30;1.38;;;0.25;;
60588;SDS011;46421;48.610;9.334;2023-04-01T02:15:01;0.63;;;0.10;;
60588;SDS011;46421;48.610;9.334;2023-04-01T02:17:31;0.75;;;0.20;;
60588;SDS011;46421;48.610;9.334;2023-04-01T02:20:02;1.15;;;0.13;;
60588;SDS011;46421;48.610;9.334;2023-04-01T02:22:32;0.05;;;0.00;;
60588;SDS011;46421;48.610;9.334;2023-04-01T02:25:05;1.63;;;0.15;;
60588;SDS011;46421;48.610;9.334;2023-04-01T02:27:33;0.68;;;0.00;;
60588;SDS011;46421;48.610;9.334;2023-04-01T02:29:59;0.60;;;0.10;;
60588;SDS011;46421;48.610;9.334;2023-04-01T02:32:24;0.00;;;0.00;;
60588;SDS011;46421;48.610;9.334;2023-04-01T02:34:52;0.63;;;0.10;;
60588;SDS011;46421;48.610;9.334;2023-04-01T02:37:17;0.10;;;0.10;;
60588;SDS011;46421;48.610;9.334;2023-04-01T02:39:43;0.00;;;0.00;;
60588;SDS011;46421;48.610;9.334;2023-04-01T02:42:09;0.25;;;0.05;;
60588;SDS011;46421;48.610;9.334;2023-04-01T02:44:34;0.10;;;0.00;;
60588;SDS011;46421;48.610;9.334;2023-04-01T02:47:00;0.08;;;0.03;;
60588;SDS011;46421;48.610;9.334;2023-04-01T02:49:25;0.13;;;0.00;;
60588;SDS011;46421;48.610;9.334;2023-04-01T02:51:51;0.93;;;0.10;;
60588;SDS011;46421;48.610;9.334;2023-04-01T02:54:17;0.10;;;0.10;;
60588;SDS011;46421;48.610;9.334;2023-04-01T02:56:43;0.38;;;0.32;;
60588;SDS011;46421;48.610;9.334;2023-04-01T02:59:08;0.65;;;0.10;;
60588;SDS011;46421;48.610;9.334;2023-04-01T03:01:33;0.63;;;0.05;;
60588;SDS011;46421;48.610;9.334;2023-04-01T03:03:59;0.45;;;0.10;;
60588;SDS011;46421;48.610;9.334;2023-04-01T03:06:24;3.40;;;0.20;;
60588;SDS011;46421;48.610;9.334;2023-04-01T03:08:50;0.00;;;0.00;;
60588;SDS011;46421;48.610;9.334;2023-04-01T03:11:15;1.25;;;0.10;;
60588;SDS011;46421;48.610;9.334;2023-04-01T03:13:41;0.27;;;0.07;;
60588;SDS011;46421;48.610;9.334;2023-04-01T03:16:06;0.03;;;0.00;;
60588;SDS011;46421;48.610;9.334;2023-04-01T03:18:31;1.25;;;0.00;;
60588;SDS011;46421;48.610;9.334;2023-04-01T03:20:57;0.35;;;0.00;;
60588;SDS011;46421;48.610;9.334;2023-04-01T03:23:22;0.00;;;0.00;;
60588;SDS011;46421;48.610;9.334;2023-04-01T03:25:49;2.45;;;0.40;;
60588;SDS011;46421;48.610;9.334;2023-04-01T03:28:15;1.10;;;0.10;;
60588;SDS011;46421;48.610;9.334;2023-04-01T03:30:40;0.37;;;0.10;;
60588;SDS011;46421;48.610;9.334;2023-04-01T03:33:06;0.10;;;0.00;;
60588;SDS011;46421;48.610;9.334;2023-04-01T03:35:31;1.00;;;0.10;;
60588;SDS011;46421;48.610;9.334;2023-04-01T03:37:58;0.00;;;0.00;;
60588;SDS011;46421;48.610;9.334;2023-04-01T03:40:23;0.08;;;0.00;;
60588;SDS011;46421;48.610;9.334;2023-04-01T03:42:51;1.65;;;0.10;;
60588;SDS011;46421;48.610;9.334;2023-04-01T03:45:17;0.25;;;0.10;;
60588;SDS011;46421;48.610;9.334;2023-04-01T03:47:42;0.03;;;0.00;;
60588;SDS011;46421;48.610;9.334;2023-04-01T03:50:07;0.23;;;0.07;;
60588;SDS011;46421;48.610;9.334;2023-04-01T03:52:34;0.20;;;0.08;;
60588;SDS011;46421;48.610;9.334;2023-04-01T03:55:00;0.35;;;0.13;;
60588;SDS011;46421;48.610;9.334;2023-04-01T03:57:26;0.00;;;0.00;;
60588;SDS011;46421;48.610;9.334;2023-04-01T03:59:52;0.63;;;0.10;;
60588;SDS011;46421;48.610;9.334;2023-04-01T04:02:17;0.47;;;0.15;;
60588;SDS011;46421;48.610;9.334;2023-04-01T04:04:42;0.63;;;0.10;;
60588;SDS011;46421;48.610;9.334;2023-04-01T04:07:08;0.00;;;0.00;;
60588;SDS011;46421;48.610;9.334;2023-04-01T04:09:34;0.38;;;0.10;;
60588;SDS011;46421;48.610;9.334;2023-04-01T04:11:59;0.00;;;0.00;;
60588;SDS011;46421;48.610;9.334;2023-04-01T04:14:25;0.00;;;0.00;;
60588;SDS011;46421;48.610;9.334;2023-04-01T04:16:51;0.10;;;0.00;;
60588;SDS011;46421;48.610;9.334;2023-04-01T04:19:17;0.17;;;0.10;;
60588;SDS011;46421;48.610;9.334;2023-04-01T04:21:42;0.00;;;0.00;;
60588;SDS011;46421;48.610;9.334;2023-04-01T04:24:08;0.20;;;0.05;;
60588;SDS011;46421;48.610;9.334;2023-04-01T04:26:34;0.17;;;0.10;;
60588;SDS011;46421;48.610;9.334;2023-04-01T04:28:59;0.00;;;0.00;;
60588;SDS011;46421;48.610;9.334;2023-04-01T04:31:26;0.57;;;0.20;;
60588;SDS011;46421;48.610;9.334;2023-04-01T04:33:51;0.95;;;0.20;;
60588;SDS011;46421;48.610;9.334;2023-04-01T04:36:17;0.00;;;0.00;;
60588;SDS011;46421;48.610;9.334;2023-04-01T04:38:43;0.30;;;0.03;;
60588;SDS011;46421;48.610;9.334;2023-04-01T04:41:09;0.23;;;0.00;;
60588;SDS011;46421;48.610;9.334;2023-04-01T04:43:35;0.68;;;0.52;;
60588;SDS011;46421;48.610;9.334;2023-04-01T04:46:03;0.10;;;0.10;;
60588;SDS011;46421;48.610;9.334;2023-04-01T04:48:32;0.65;;;0.10;;
60588;SDS011;46421;48.610;9.334;2023-04-01T04:50:58;0.75;;;0.17;;
60588;SDS011;46421;48.610;9.334;2023-04-01T04:53:23;1.42;;;0.25;;
60588;SDS011;46421;48.610;9.334;2023-04-01T04:55:50;0.82;;;0.20;;
60588;SDS011;46421;48.610;9.334;2023-04-01T04:58:16;0.13;;;0.10;;
60588;SDS011;46421;48.610;9.334;2023-04-01T05:00:42;1.67;;;0.32;;
60588;SDS011;46421;48.610;9.334;2023-04-01T05:03:08;0.75;;;0.20;;
60588;SDS011;46421;48.610;9.334;2023-04-01T05:05:34;0.55;;;0.10;;
60588;SDS011;46421;48.610;9.334;2023-04-01T05:07:59;0.60;;;0.20;;
60588;SDS011;46421;48.610;9.334;2023-04-01T05:10:25;0.20;;;0.00;;
60588;SDS011;46421;48.610;9.334;2023-04-01T05:12:50;1.35;;;0.30;;
60588;SDS011;46421;48.610;9.334;2023-04-01T05:15:16;1.13;;;0.32;;
60588;SDS011;46421;48.610;9.334;2023-04-01T05:17:41;0.00;;;0.00;;
60588;SDS011;46421;48.610;9.334;2023-04-01T05:20:06;0.67;;;0.20;;
60588;SDS011;46421;48.610;9.334;2023-04-01T05:22:32;0.85;;;0.08;;
60588;SDS011;46421;48.610;9.334;2023-04-01T05:24:58;0.10;;;0.00;;
60588;SDS011;46421;48.610;9.334;2023-04-01T05:27:23;0.85;;;0.10;;
60588;SDS011;46421;48.610;9.334;2023-04-01T05:29:48;0.43;;;0.10;;
60588;SDS011;46421;48.610;9.334;2023-04-01T05:32:14;0.87;;;0.13;;
60588;SDS011;46421;48.610;9.334;2023-04-01T05:34:39;0.85;;;0.30;;
60588;SDS011;46421;48.610;9.334;2023-04-01T05:37:05;0.28;;;0.10;;
60588;SDS011;46421;48.610;9.334;2023-04-01T05:39:35;0.00;;;0.00;;
60588;SDS011;46421;48.610;9.334;2023-04-01T05:42:01;0.65;;;0.13;;
60588;SDS011;46421;48.610;9.334;2023-04-01T05:44:26;1.00;;;0.30;;
60588;SDS011;46421;48.610;9.334;2023-04-01T05:46:52;0.20;;;0.10;;
60588;SDS011;46421;48.610;9.334;2023-04-01T05:49:17;1.55;;;0.10;;
60588;SDS011;46421;48.610;9.334;2023-04-01T05:51:42;0.57;;;0.10;;
60588;SDS011;46421;48.610;9.334;2023-04-01T05:54:08;0.00;;;0.00;;
60588;SDS011;46421;48.610;9.334;2023-04-01T05:56:33;0.67;;;0.57;;
60588;SDS011;46421;48.610;9.334;2023-04-01T05:58:59;0.20;;;0.03;;
60588;SDS011;46421;48.610;9.334;2023-04-01T06:01:24;4.88;;;0.20;;
60588;SDS011;46421;48.610;9.334;2023-04-01T06:03:49;0.32;;;0.20;;
60588;SDS011;46421;48.610;9.334;2023-04-01T06:06:24;0.38;;;0.03;;
60588;SDS011;46421;48.610;9.334;2023-04-01T06:08:55;0.00;;;0.00;;
60588;SDS011;46421;48.610;9.334;2023-04-01T06:11:28;0.55;;;0.20;;
60588;SDS011;46421;48.610;9.334;2023-04-01T06:46:44;0.60;;;0.15;;
60588;SDS011;46421;48.610;9.334;2023-04-01T06:49:37;0.30;;;0.13;;
60588;SDS011;46421;48.610;9.334;2023-04-01T06:55:02;0.90;;;0.10;;
60588;SDS011;46421;48.610;9.334;2023-04-01T06:57:48;0.25;;;0.13;;
60588;SDS011;46421;48.610;9.334;2023-04-01T07:00:31;0.30;;;0.10;;
60588;SDS011;46421;48.610;9.334;2023-04-01T07:05:41;1.13;;;0.35;;
60588;SDS011;46421;48.610;9.334;2023-04-01T07:08:11;0.10;;;0.08;;
60588;SDS011;46421;48.610;9.334;2023-04-01T07:10:47;0.40;;;0.15;;
60588;SDS011;46421;48.610;9.334;2023-04-01T07:13:25;1.80;;;0.22;;
60588;SDS011;46421;48.610;9.334;2023-04-01T07:16:59;0.45;;;0.10;;
60588;SDS011;46421;48.610;9.334;2023-04-01T07:19:06;0.20;;;0.20;;
60588;SDS011;46421;48.610;9.334;2023-04-01T07:21:47;1.13;;;0.30;;
60588;SDS011;46421;48.610;9.334;2023-04-01T07:24:27;0.00;;;0.00;;
60588;SDS011;46421;48.610;9.334;2023-04-01T07:26:58;1.23;;;0.13;;
60588;SDS011;46421;48.610;9.334;2023-04-01T07:29:24;0.40;;;0.10;;
60588;SDS011;46421;48.610;9.334;2023-04-01T07:45:42;0.70;;;0.20;;
60588;SDS011;46421;48.610;9.334;2023-04-01T07:49:31;1.25;;;0.40;;
60588;SDS011;46421;48.610;9.334;2023-04-01T07:51:46;0.63;;;0.22;;
60588;SDS011;46421;48.610;9.334;2023-04-01T07:54:40;0.93;;;0.30;;
60588;SDS011;46421;48.610;9.334;2023-04-01T07:57:19;0.63;;;0.20;;
60588;SDS011;46421;48.610;9.334;2023-04-01T08:02:40;1.00;;;0.30;;
60588;SDS011;46421;48.610;9.334;2023-04-01T08:05:28;1.08;;;0.20;;
60588;SDS011;46421;48.610;9.334;2023-04-01T08:11:06;3.75;;;0.40;;
60588;SDS011;46421;48.610;9.334;2023-04-01T08:13:36;2.65;;;0.22;;
60588;SDS011;46421;48.610;9.334;2023-04-01T08:21:39;0.20;;;0.20;;
60588;SDS011;46421;48.610;9.334;2023-04-01T08:24:17;3.10;;;1.65;;
60588;SDS011;46421;48.610;9.334;2023-04-01T08:26:45;0.45;;;0.20;;
60588;SDS011;46421;48.610;9.334;2023-04-01T08:34:42;0.03;;;0.03;;
60588;SDS011;46421;48.610;9.334;2023-04-01T08:37:16;1.55;;;0.20;;
60588;SDS011;46421;48.610;9.334;2023-04-01T08:39:58;0.40;;;0.20;;
60588;SDS011;46421;48.610;9.334;2023-04-01T08:48:36;0.20;;;0.00;;
60588;SDS011;46421;48.610;9.334;2023-04-01T08:54:00;0.38;;;0.20;;
60588;SDS011;46421;48.610;9.334;2023-04-01T08:59:13;0.10;;;0.10;;
60588;SDS011;46421;48.610;9.334;2023-04-01T09:01:54;0.20;;;0.10;;
60588;SDS011;46421;48.610;9.334;2023-04-01T09:07:34;0.20;;;0.17;;
60588;SDS011;46421;48.610;9.334;2023-04-01T09:13:44;0.50;;;0.22;;
60588;SDS011;46421;48.610;9.334;2023-04-01T09:16:35;0.35;;;0.22;;
60588;SDS011;46421;48.610;9.334;2023-04-01T09:20:17;0.13;;;0.00;;
60588;SDS011;46421;48.610;9.334;2023-04-01T09:22:25;0.20;;;0.03;;
60588;SDS011;46421;48.610;9.334;2023-04-01T09:38:30;0.00;;;0.00;;
60588;SDS011;46421;48.610;9.334;2023-04-01T09:44:02;0.38;;;0.10;;
60588;SDS011;46421;48.610;9.334;2023-04-01T09:49:30;0.20;;;0.10;;
60588;SDS011;46421;48.610;9.334;2023-04-01T10:00:50;0.00;;;0.00;;
60588;SDS011;46421;48.610;9.334;2023-04-01T10:03:36;0.30;;;0.10;;
60588;SDS011;46421;48.610;9.334;2023-04-01T10:18:06;0.50;;;0.20;;
60588;SDS011;46421;48.610;9.334;2023-04-01T10:23:43;0.32;;;0.20;;
60588;SDS011;46421;48.610;9.334;2023-04-01T10:26:20;1.58;;;0.20;;
60588;SDS011;46421;48.610;9.334;2023-04-01T10:29:12;0.52;;;0.17;;
60588;SDS011;46421;48.610;9.334;2023-04-01T10:31:59;0.55;;;0.20;;
60588;SDS011;46421;48.610;9.334;2023-04-01T10:40:08;0.57;;;0.30;;
60588;SDS011;46421;48.610;9.334;2023-04-01T10:48:55;0.75;;;0.30;;
60588;SDS011;46421;48.610;9.334;2023-04-01T10:54:07;0.57;;;0.17;;
60588;SDS011;46421;48.610;9.334;2023-04-01T10:56:49;0.68;;;0.40;;
60588;SDS011;46421;48.610;9.334;2023-04-01T11:02:06;0.63;;;0.30;;
60588;SDS011;46421;48.610;9.334;2023-04-01T11:05:18;1.92;;;0.30;;
60588;SDS011;46421;48.610;9.334;2023-04-01T11:07:59;0.20;;;0.10;;
60588;SDS011;46421;48.610;9.334;2023-04-01T11:10:44;0.77;;;0.20;;
60588;SDS011;46421;48.610;9.334;2023-04-01T11:13:36;1.00;;;0.30;;
60588;SDS011;46421;48.610;9.334;2023-04-01T11:26:39;0.57;;;0.30;;
60588;SDS011;46421;48.610;9.334;2023-04-01T11:29:39;0.00;;;0.00;;
60588;SDS011;46421;48.610;9.334;2023-04-01T11:32:37;0.20;;;0.10;;
60588;SDS011;46421;48.610;9.334;2023-04-01T11:44:13;0.75;;;0.22;;
60588;SDS011;46421;48.610;9.334;2023-04-01T11:49:24;0.05;;;0.05;;
60588;SDS011;46421;48.610;9.334;2023-04-01T11:54:50;0.13;;;0.03;;
60588;SDS011;46421;48.610;9.334;2023-04-01T12:03:21;0.28;;;0.10;;
60588;SDS011;46421;48.610;9.334;2023-04-01T12:06:02;0.10;;;0.10;;
60588;SDS011;46421;48.610;9.334;2023-04-01T12:24:24;0.35;;;0.20;;
60588;SDS011;46421;48.610;9.334;2023-04-01T12:28:22;0.10;;;0.05;;
60588;SDS011;46421;48.610;9.334;2023-04-01T12:35:53;0.30;;;0.10;;
60588;SDS011;46421;48.610;9.334;2023-04-01T12:43:25;0.28;;;0.08;;
60588;SDS011;46421;48.610;9.334;2023-04-01T13:06:19;0.10;;;0.10;;
60588;SDS011;46421;48.610;9.334;2023-04-01T13:17:12;0.00;;;0.00;;
60588;SDS011;46421;48.610;9.334;2023-04-01T13:36:10;0.00;;;0.00;;
60588;SDS011;46421;48.610;9.334;2023-04-01T13:44:00;0.63;;;0.10;;
60588;SDS011;46421;48.610;9.334;2023-04-01T13:55:30;0.32;;;0.10;;
60588;SDS011;46421;48.610;9.334;2023-04-01T14:06:49;0.22;;;0.10;;
60588;SDS011;46421;48.610;9.334;2023-04-01T14:18:33;1.08;;;0.20;;
60588;SDS011;46421;48.610;9.334;2023-04-01T14:22:13;0.10;;;0.10;;
60588;SDS011;46421;48.610;9.334;2023-04-01T14:37:19;1.55;;;0.10;;
60588;SDS011;46421;48.610;9.334;2023-04-01T14:48:25;0.57;;;0.00;;
60588;SDS011;46421;48.610;9.334;2023-04-01T14:52:16;0.00;;;0.00;;
60588;SDS011;46421;48.610;9.334;2023-04-01T14:55:55;0.13;;;0.00;;
60588;SDS011;46421;48.610;9.334;2023-04-01T14:59:39;0.03;;;0.03;;
60588;SDS011;46421;48.610;9.334;2023-04-01T15:06:56;0.73;;;0.10;;
60588;SDS011;46421;48.610;9.334;2023-04-01T15:18:14;0.00;;;0.00;;
60588;SDS011;46421;48.610;9.334;2023-04-01T15:25:48;0.75;;;0.30;;
60588;SDS011;46421;48.610;9.334;2023-04-01T15:30:07;1.35;;;0.20;;
60588;SDS011;46421;48.610;9.334;2023-04-01T15:40:53;0.55;;;0.20;;
60588;SDS011;46421;48.610;9.334;2023-04-01T15:44:33;0.60;;;0.15;;
60588;SDS011;46421;48.610;9.334;2023-04-01T15:48:22;0.28;;;0.17;;
60588;SDS011;46421;48.610;9.334;2023-04-01T15:56:12;2.03;;;0.22;;
60588;SDS011;46421;48.610;9.334;2023-04-01T16:07:40;0.85;;;0.32;;
60588;SDS011;46421;48.610;9.334;2023-04-01T16:11:34;0.80;;;0.20;;
60588;SDS011;46421;48.610;9.334;2023-04-01T16:22:02;0.82;;;0.30;;
60588;SDS011;46421;48.610;9.334;2023-04-01T16:25:41;1.83;;;0.30;;
60588;SDS011;46421;48.610;9.334;2023-04-01T16:33:05;0.00;;;0.00;;
60588;SDS011;46421;48.610;9.334;2023-04-01T16:36:47;0.10;;;0.10;;
60588;SDS011;46421;48.610;9.334;2023-04-01T16:44:13;1.92;;;0.38;;
60588;SDS011;46421;48.610;9.334;2023-04-01T16:48:22;0.98;;;0.30;;
60588;SDS011;46421;48.610;9.334;2023-04-01T16:59:14;0.70;;;0.30;;
60588;SDS011;46421;48.610;9.334;2023-04-01T17:21:18;1.08;;;0.40;;
60588;SDS011;46421;48.610;9.334;2023-04-01T17:24:58;1.17;;;0.40;;
60588;SDS011;46421;48.610;9.334;2023-04-01T17:36:33;1.05;;;0.40;;
60588;SDS011;46421;48.610;9.334;2023-04-01T17:43:03;1.83;;;0.50;;
60588;SDS011;46421;48.610;9.334;2023-04-01T17:45:48;1.27;;;0.30;;
60588;SDS011;46421;48.610;9.334;2023-04-01T17:48:20;0.80;;;0.30;;
60588;SDS011;46421;48.610;9.334;2023-04-01T17:50:51;1.08;;;0.35;;
60588;SDS011;46421;48.610;9.334;2023-04-01T18:02:44;2.63;;;0.88;;
60588;SDS011;46421;48.610;9.334;2023-04-01T18:17:01;1.38;;;0.60;;
60588;SDS011;46421;48.610;9.334;2023-04-01T18:19:40;2.22;;;0.65;;
60588;SDS011;46421;48.610;9.334;2023-04-01T18:22:26;0.60;;;0.40;;
60588;SDS011;46421;48.610;9.334;2023-04-01T18:30:49;1.70;;;0.50;;
60588;SDS011;46421;48.610;9.334;2023-04-01T18:33:19;0.70;;;0.40;;
60588;SDS011;46421;48.610;9.334;2023-04-01T18:38:55;1.00;;;0.50;;
60588;SDS011;46421;48.610;9.334;2023-04-01T18:41:35;0.88;;;0.45;;
60588;SDS011;46421;48.610;9.334;2023-04-01T18:44:23;0.85;;;0.43;;
60588;SDS011;46421;48.610;9.334;2023-04-01T18:47:55;1.88;;;0.63;;
60588;SDS011;46421;48.610;9.334;2023-04-01T18:52:59;2.17;;;0.63;;
60588;SDS011;46421;48.610;9.334;2023-04-01T18:55:41;2.75;;;0.82;;
60588;SDS011;46421;48.610;9.334;2023-04-01T18:58:24;1.25;;;0.57;;
60588;SDS011;46421;48.610;9.334;2023-04-01T19:04:17;1.05;;;0.40;;
60588;SDS011;46421;48.610;9.334;2023-04-01T19:06:56;0.98;;;0.30;;
60588;SDS011;46421;48.610;9.334;2023-04-01T19:09:43;0.47;;;0.20;;
60588;SDS011;46421;48.610;9.334;2023-04-01T19:17:59;1.33;;;0.40;;
60588;SDS011;46421;48.610;9.334;2023-04-01T19:20:57;0.70;;;0.28;;
60588;SDS011;46421;48.610;9.334;2023-04-01T19:23:46;0.82;;;0.30;;
60588;SDS011;46421;48.610;9.334;2023-04-01T19:40:55;0.77;;;0.20;;
60588;SDS011;46421;48.610;9.334;2023-04-01T19:46:16;1.05;;;0.50;;
60588;SDS011;46421;48.610;9.334;2023-04-01T19:56:33;2.90;;;1.13;;
60588;SDS011;46421;48.610;9.334;2023-04-01T20:05:11;1.25;;;0.50;;
60588;SDS011;46421;48.610;9.334;2023-04-01T20:07:43;1.40;;;0.50;;
60588;SDS011;46421;48.610;9.334;2023-04-01T20:10:39;1.42;;;0.57;;
60588;SDS011;46421;48.610;9.334;2023-04-01T20:13:09;0.77;;;0.40;;
60588;SDS011;46421;48.610;9.334;2023-04-01T20:18:23;1.90;;;0.50;;
60588;SDS011;46421;48.610;9.334;2023-04-01T20:20:57;0.68;;;0.40;;
60588;SDS011;46421;48.610;9.334;2023-04-01T20:23:33;1.27;;;0.40;;
60588;SDS011;46421;48.610;9.334;2023-04-01T20:26:07;0.45;;;0.25;;
60588;SDS011;46421;48.610;9.334;2023-04-01T20:39:34;0.68;;;0.40;;
60588;SDS011;46421;48.610;9.334;2023-04-01T20:45:13;0.98;;;0.40;;
60588;SDS011;46421;48.610;9.334;2023-04-01T20:47:50;2.25;;;0.60;;
60588;SDS011;46421;48.610;9.334;2023-04-01T20:50:49;0.98;;;0.40;;
60588;SDS011;46421;48.610;9.334;2023-04-01T20:56:10;1.75;;;0.50;;
60588;SDS011;46421;48.610;9.334;2023-04-01T21:01:34;1.52;;;0.70;;
60588;SDS011;46421;48.610;9.334;2023-04-01T21:05:27;3.72;;;1.17;;
60588;SDS011;46421;48.610;9.334;2023-04-01T21:09:19;3.10;;;1.20;;
60588;SDS011;46421;48.610;9.334;2023-04-01T21:17:04;5.60;;;1.60;;
60588;SDS011;46421;48.610;9.334;2023-04-01T21:24:29;2.85;;;1.00;;
60588;SDS011;46421;48.610;9.334;2023-04-01T21:46:41;2.30;;;0.70;;
60588;SDS011;46421;48.610;9.334;2023-04-01T21:50:52;1.25;;;0.63;;
60588;SDS011;46421;48.610;9.334;2023-04-01T22:18:11;1.38;;;0.65;;
60588;SDS011;46421;48.610;9.334;2023-04-01T22:22:01;2.05;;;0.60;;
60588;SDS011;46421;48.610;9.334;2023-04-01T22:25:46;1.23;;;0.52;;
60588;SDS011;46421;48.610;9.334;2023-04-01T22:32:57;1.73;;;0.43;;
60588;SDS011;46421;48.610;9.334;2023-04-01T22:43:34;1.50;;;0.57;;
60588;SDS011;46421;48.610;9.334;2023-04-01T22:51:06;0.70;;;0.30;;
60588;SDS011;46421;48.610;9.334;2023-04-01T22:54:44;2.15;;;0.47;;
60588;SDS011;46421;48.610;9.334;2023-04-01T22:58:14;0.88;;;0.35;;
60588;SDS011;46421;48.610;9.334;2023-04-01T23:05:46;1.65;;;0.50;;
60588;SDS011;46421;48.610;9.334;2023-04-01T23:09:19;2.15;;;0.47;;
60588;SDS011;46421;48.610;9.334;2023-04-01T23:13:02;1.00;;;0.40;;
60588;SDS011;46421;48.610;9.334;2023-04-01T23:16:51;0.30;;;0.20;;
60588;SDS011;46421;48.610;9.334;2023-04-01T23:20:51;0.73;;;0.30;;
60588;SDS011;46421;48.610;9.334;2023-04-01T23:24:39;1.10;;;0.22;;
60588;SDS011;46421;48.610;9.334;2023-04-01T23:31:40;0.45;;;0.15;;
60588;SDS011;46421;48.610;9.334;2023-04-01T23:35:11;0.10;;;0.10;;
60588;SDS011;46421;48.610;9.334;2023-04-01T23:38:38;0.10;;;0.10;;
60588;SDS011;46421;48.610;9.334;2023-04-01T23:42:24;0.75;;;0.20;;
60588;SDS011;46421;48.610;9.334;2023-04-01T23:44:53;0.10;;;0.00;;
60588;SDS011;46421;48.610;9.334;2023-04-01T23:47:22;0.30;;;0.17;;
60588;SDS011;46421;48.610;9.334;2023-04-01T23:49:52;0.10;;;0.10;;
60588;SDS011;46421;48.610;9.334;2023-04-01T23:53:18;0.13;;;0.10;;
60588;SDS011;46421;48.610;9.334;2023-04-01T23:56:53;0.20;;;0.15;;
